Time;durP1;ratioP1;P1;durP2;ratioP2;P2;SDS_P1;SDS_P2;PMS_P1;PMS_P2;Temp;Humidity;BMP_temperature;BMP_pressure;BME280_temperature;BME280_humidity;BME280_pressure;Samples;Min_cycle;Max_cycle;Signal;HPM_P1;HPM_P2
2021/09/22 00:02:00;;;;;;;0.80;0.70;;;23.90;51.10;;;;;;31246388;28;20053;-45
2021/09/22 00:17:03;;;;;;;0.30;0.30;;;23.80;51.40;;;;;;31265115;28;20180;-52
2021/09/22 00:32:05;;;;;;;2.20;0.30;;;23.80;51.80;;;;;;31268466;28;20049;-45
2021/09/22 00:47:07;;;;;;;0.20;0.20;;;23.80;52.20;;;;;;31267258;28;20072;-46
2021/09/22 01:02:10;;;;;;;0.20;0.20;;;23.80;52.10;;;;;;31267872;28;20073;-45
2021/09/22 01:17:17;;;;;;;0.10;0.10;;;23.80;52.20;;;;;;31271191;28;20046;-48
2021/09/22 01:32:20;;;;;;;1.95;0.10;;;23.70;52.60;;;;;;31262341;28;20097;-53
2021/09/22 01:47:22;;;;;;;1.27;0.15;;;23.70;53.00;;;;;;31259519;28;20130;-50
2021/09/22 02:02:24;;;;;;;3.75;0.20;;;23.70;53.10;;;;;;31258805;28;20094;-47
2021/09/22 02:17:27;;;;;;;0.80;0.10;;;23.80;53.30;;;;;;31257697;28;20046;-52
2021/09/22 02:32:29;;;;;;;0.38;0.20;;;23.70;53.30;;;;;;31255537;28;20172;-49
2021/09/22 02:47:31;;;;;;;0.10;0.10;;;23.70;53.50;;;;;;31253432;28;20134;-49
2021/09/22 03:02:33;;;;;;;0.10;0.10;;;23.70;53.50;;;;;;31252260;28;20122;-51
2021/09/22 03:17:35;;;;;;;0.10;0.10;;;23.70;53.40;;;;;;31251017;28;20103;-54
2021/09/22 03:32:38;;;;;;;0.00;0.00;;;23.70;53.40;;;;;;31248836;28;20085;-53
2021/09/22 03:47:40;;;;;;;0.47;0.10;;;23.70;53.50;;;;;;31246868;28;20129;-51
2021/09/22 04:02:42;;;;;;;0.10;0.10;;;23.70;53.50;;;;;;31248931;28;20049;-46
2021/09/22 04:17:45;;;;;;;0.08;0.08;;;23.60;53.40;;;;;;31248491;28;20057;-52
2021/09/22 04:32:47;;;;;;;5.45;2.85;;;23.60;53.80;;;;;;31244860;28;20157;-53
2021/09/22 04:47:49;;;;;;;5.22;3.15;;;23.40;52.50;;;;;;31242783;28;20529;-57
2021/09/22 05:02:51;;;;;;;7.72;4.18;;;23.30;51.90;;;;;;31260362;28;20042;-53
2021/09/22 05:17:54;;;;;;;8.48;3.53;;;23.30;51.00;;;;;;31264535;28;20072;-56
2021/09/22 05:32:56;;;;;;;5.07;3.78;;;23.20;51.00;;;;;;31258713;28;20077;-51
2021/09/22 05:48:18;;;;;;;6.70;5.35;;;22.90;48.40;;;;;;31260874;28;20080;-52
2021/09/22 06:03:20;;;;;;;13.52;9.98;;;22.80;47.40;;;;;;31267664;28;20042;-54
2021/09/22 06:18:23;;;;;;;55.03;41.88;;;22.40;47.70;;;;;;31262291;28;20046;-46
2021/09/22 06:33:25;;;;;;;34.63;22.50;;;22.50;46.00;;;;;;31260770;28;20138;-48
2021/09/22 06:48:27;;;;;;;17.98;14.55;;;22.50;45.20;;;;;;31262619;28;20058;-45
2021/09/22 07:03:29;;;;;;;16.20;11.95;;;22.50;45.30;;;;;;31252756;28;20072;-44
2021/09/22 07:18:32;;;;;;;13.73;11.05;;;22.50;45.30;;;;;;31249977;28;20054;-49
2021/09/22 07:33:35;;;;;;;12.82;8.55;;;22.40;45.60;;;;;;31249278;28;20046;-47
2021/09/22 07:48:37;;;;;;;7.60;5.90;;;22.40;45.20;;;;;;31247163;28;20132;-47
2021/09/22 08:03:40;;;;;;;8.70;7.75;;;22.40;45.00;;;;;;31247080;28;20046;-46
2021/09/22 08:18:45;;;;;;;6.30;4.75;;;22.40;45.70;;;;;;31246156;28;20050;-44
2021/09/22 08:33:48;;;;;;;6.20;3.80;;;22.40;44.90;;;;;;31256727;28;20080;-44
2021/09/22 08:48:50;;;;;;;9.05;4.82;;;22.40;45.00;;;;;;31267947;28;20065;-47
2021/09/22 09:03:53;;;;;;;4.22;3.63;;;22.30;44.50;;;;;;31265372;28;20109;-46
2021/09/22 09:18:56;;;;;;;3.42;3.00;;;22.30;44.20;;;;;;31265010;28;20124;-49
2021/09/22 09:33:59;;;;;;;4.07;3.28;;;22.30;44.00;;;;;;31261698;28;20109;-45
2021/09/22 09:49:08;;;;;;;6.72;6.00;;;22.30;43.70;;;;;;31260109;28;20131;-45
2021/09/22 10:04:12;;;;;;;15.02;5.70;;;22.30;44.50;;;;;;31259302;28;20046;-46
2021/09/22 10:19:15;;;;;;;10.02;6.35;;;22.00;43.50;;;;;;31257514;28;20042;-46
2021/09/22 10:34:47;;;;;;;10.20;6.50;;;22.20;43.60;;;;;;31254183;28;20104;-50
2021/09/22 10:49:58;;;;;;;15.60;7.17;;;21.80;41.80;;;;;;31243794;28;20050;-47
2021/09/22 11:05:01;;;;;;;11.90;5.68;;;22.10;44.20;;;;;;31253473;28;20098;-48
2021/09/22 11:20:05;;;;;;;7.72;4.93;;;22.20;45.40;;;;;;31250777;28;20056;-49
2021/09/22 11:35:10;;;;;;;10.20;4.80;;;22.20;43.70;;;;;;31251819;28;20121;-48
2021/09/22 11:50:27;;;;;;;6.30;4.50;;;21.90;43.00;;;;;;31255414;28;20069;-51
2021/09/22 12:05:29;;;;;;;10.18;4.55;;;22.10;42.30;;;;;;31253792;28;20042;-47
2021/09/22 12:20:36;;;;;;;5.47;3.78;;;21.80;41.00;;;;;;31250131;28;20072;-48
2021/09/22 12:35:43;;;;;;;5.57;3.47;;;21.90;41.20;;;;;;31248572;28;20057;-53
2021/09/22 12:50:45;;;;;;;4.20;3.78;;;21.90;41.50;;;;;;31246680;28;20661;-49
2021/09/22 13:06:05;;;;;;;4.85;3.95;;;22.00;40.70;;;;;;31249517;28;20046;-49
2021/09/22 13:21:07;;;;;;;12.43;6.23;;;21.80;40.90;;;;;;31210669;28;20038;-48
2021/09/22 13:36:10;;;;;;;15.88;4.72;;;22.00;39.80;;;;;;31144559;28;20061;-52
2021/09/22 13:51:13;;;;;;;8.75;4.55;;;22.20;41.00;;;;;;31235732;28;20062;-46
2021/09/22 14:06:15;;;;;;;9.93;4.60;;;22.30;41.00;;;;;;31258807;28;20053;-44
2021/09/22 14:21:19;;;;;;;24.48;5.90;;;22.30;41.00;;;;;;31260525;28;20109;-51
2021/09/22 14:36:22;;;;;;;12.25;4.25;;;22.30;42.30;;;;;;31259225;28;20046;-56
2021/09/22 14:51:25;;;;;;;17.90;3.95;;;22.30;44.70;;;;;;31259416;28;20053;-47
2021/09/22 15:06:27;;;;;;;6.60;3.72;;;22.40;42.60;;;;;;31138714;28;20043;-46
2021/09/22 15:21:29;;;;;;;6.10;3.20;;;22.50;43.20;;;;;;31207619;28;20088;-45
2021/09/22 15:36:31;;;;;;;132.18;101.60;;;22.50;43.60;;;;;;31247340;28;20046;-47
2021/09/22 15:51:33;;;;;;;44.40;32.85;;;22.50;45.40;;;;;;31222720;28;20069;-56
2021/09/22 16:06:35;;;;;;;31.70;25.42;;;22.50;45.60;;;;;;31243992;28;20041;-58
2021/09/22 16:21:38;;;;;;;47.80;21.48;;;22.50;46.50;;;;;;31236455;28;20046;-58
2021/09/22 16:36:41;;;;;;;41.38;21.15;;;22.80;47.30;;;;;;31209419;28;20053;-56
2021/09/22 16:51:44;;;;;;;31.23;16.88;;;22.90;46.60;;;;;;30859435;28;10000531;-53
2021/09/22 17:06:46;;;;;;;20.95;14.85;;;22.70;46.80;;;;;;31271671;28;20038;-49
2021/09/22 17:21:49;;;;;;;33.63;22.50;;;22.70;46.50;;;;;;31259835;28;20071;-52
2021/09/22 17:36:51;;;;;;;18.83;11.30;;;22.70;46.20;;;;;;31257972;28;20053;-51
2021/09/22 17:51:53;;;;;;;22.25;12.45;;;22.70;45.20;;;;;;31063109;28;20054;-46
2021/09/22 18:06:55;;;;;;;16.42;10.65;;;22.60;46.80;;;;;;31065928;28;20065;-53
2021/09/22 18:21:57;;;;;;;21.75;10.10;;;22.60;46.50;;;;;;31136331;28;20049;-42
2021/09/22 18:37:03;;;;;;;17.15;9.30;;;22.70;46.70;;;;;;31110561;28;20055;-48
2021/09/22 18:52:06;;;;;;;13.10;8.30;;;22.70;47.10;;;;;;31207033;28;20053;-54
2021/09/22 19:07:10;;;;;;;12.23;7.72;;;22.70;47.40;;;;;;31174654;28;20108;-57
2021/09/22 19:22:14;;;;;;;12.70;7.57;;;22.70;47.60;;;;;;31139151;28;20490;-44
2021/09/22 19:37:17;;;;;;;10.65;7.68;;;22.70;47.80;;;;;;31198127;28;20054;-46
2021/09/22 19:52:19;;;;;;;11.05;8.43;;;22.90;48.30;;;;;;31126384;28;20053;-45
2021/09/22 20:07:24;;;;;;;9.40;7.50;;;23.00;48.60;;;;;;31124953;28;20114;-43
2021/09/22 20:22:26;;;;;;;38.08;30.63;;;23.00;48.80;;;;;;31123869;28;20042;-50
2021/09/22 20:37:29;;;;;;;18.33;16.40;;;22.90;48.70;;;;;;31146234;28;20065;-52
2021/09/22 20:52:32;;;;;;;13.30;10.65;;;23.00;48.80;;;;;;31145042;28;20046;-49
2021/09/22 21:07:34;;;;;;;7.35;6.47;;;23.00;48.90;;;;;;31144073;28;20046;-54
2021/09/22 21:22:40;;;;;;;8.65;6.82;;;23.00;49.30;;;;;;31141182;28;20046;-47
2021/09/22 21:37:42;;;;;;;6.28;5.05;;;23.00;49.40;;;;;;31137153;28;20054;-47
2021/09/22 21:52:44;;;;;;;5.82;4.80;;;23.00;49.50;;;;;;31158448;28;20172;-48
2021/09/22 22:07:46;;;;;;;10.25;8.60;;;23.00;49.70;;;;;;31140833;28;20046;-45
2021/09/22 22:22:48;;;;;;;6.65;5.07;;;23.00;49.40;;;;;;31136921;28;20043;-54
2021/09/22 22:37:50;;;;;;;5.75;5.07;;;23.00;49.70;;;;;;31132486;28;20046;-52
2021/09/22 22:52:53;;;;;;;5.68;5.07;;;23.00;49.60;;;;;;31130746;28;20046;-46
2021/09/22 23:07:55;;;;;;;6.90;5.10;;;23.10;49.70;;;;;;31133247;28;20041;-55
2021/09/22 23:23:09;;;;;;;6.35;5.53;;;23.10;49.60;;;;;;31134813;28;20042;-55
2021/09/22 23:38:12;;;;;;;3.08;2.63;;;23.00;49.60;;;;;;31156584;28;20060;-54
2021/09/22 23:53:14;;;;;;;5.10;4.15;;;23.00;49.90;;;;;;31250339;28;20049;-42
